Time;durP1;ratioP1;P1;durP2;ratioP2;P2;SDS_P1;SDS_P2;PMS_P1;PMS_P2;Temp;Humidity;BMP_temperature;BMP_pressure;BME280_temperature;BME280_humidity;BME280_pressure;Samples;Min_cycle;Max_cycle;Signal;HPM_P1;HPM_P2
2022/06/16 00:00:19;;;;;;;3.28;2.08;;;;;;;;;;4970341;28;20227;-81
2022/06/16 00:02:49;;;;;;;3.97;2.05;;;;;;;;;;4953916;29;20688;-81
2022/06/16 00:05:21;;;;;;;3.72;1.80;;;;;;;;;;4966407;28;20234;-79
2022/06/16 00:07:47;;;;;;;2.22;2.00;;;;;;;;;;4960610;29;20229;-78
2022/06/16 00:10:13;;;;;;;4.90;1.85;;;;;;;;;;4972316;28;20234;-82
2022/06/16 00:12:38;;;;;;;3.45;1.98;;;;;;;;;;4953556;29;20224;-81
2022/06/16 00:15:05;;;;;;;4.75;1.98;;;;;;;;;;4955298;29;20231;-80
2022/06/16 00:17:31;;;;;;;3.45;2.00;;;;;;;;;;4965830;29;20222;-80
2022/06/16 00:19:56;;;;;;;4.32;2.00;;;;;;;;;;4957024;29;20231;-79
2022/06/16 00:22:22;;;;;;;2.85;2.03;;;;;;;;;;4953232;29;20231;-82
2022/06/16 00:24:48;;;;;;;2.47;1.90;;;;;;;;;;4959157;28;20211;-82
2022/06/16 00:27:16;;;;;;;2.35;2.15;;;;;;;;;;4941279;28;20720;-80
2022/06/16 00:29:42;;;;;;;5.00;2.33;;;;;;;;;;4968533;29;20223;-82
2022/06/16 00:32:07;;;;;;;2.70;1.98;;;;;;;;;;4977151;28;20219;-81
2022/06/16 00:34:33;;;;;;;1.92;1.75;;;;;;;;;;4978431;28;20219;-82
2022/06/16 00:37:02;;;;;;;4.07;2.20;;;;;;;;;;4950435;29;20326;-82
2022/06/16 00:39:28;;;;;;;5.40;2.20;;;;;;;;;;4943923;29;20239;-82
2022/06/16 00:41:53;;;;;;;2.88;2.17;;;;;;;;;;4944812;29;20237;-81
2022/06/16 00:44:30;;;;;;;3.55;2.22;;;;;;;;;;4969721;28;20227;-80
2022/06/16 00:46:56;;;;;;;4.70;2.30;;;;;;;;;;4959924;29;20227;-81
2022/06/16 00:49:22;;;;;;;2.67;1.85;;;;;;;;;;4944869;29;20227;-81
2022/06/16 00:51:55;;;;;;;3.33;2.35;;;;;;;;;;4967723;29;20223;-80
2022/06/16 00:54:31;;;;;;;3.70;2.38;;;;;;;;;;4966607;28;20344;-81
2022/06/16 00:57:02;;;;;;;3.70;2.00;;;;;;;;;;4953602;29;20479;-81
2022/06/16 00:59:28;;;;;;;2.25;1.90;;;;;;;;;;4943675;29;20257;-80
2022/06/16 01:01:58;;;;;;;2.40;2.13;;;;;;;;;;4940592;29;20222;-81
2022/06/16 01:07:12;;;;;;;3.80;2.40;;;;;;;;;;4957869;29;20262;-78
2022/06/16 01:09:37;;;;;;;3.45;2.38;;;;;;;;;;4961527;29;20317;-79
2022/06/16 01:15:27;;;;;;;4.68;2.33;;;;;;;;;;4962792;28;20231;-81
2022/06/16 01:17:58;;;;;;;3.30;2.40;;;;;;;;;;4951489;29;20262;-81
2022/06/16 01:20:38;;;;;;;4.13;2.30;;;;;;;;;;4979256;28;20253;-79
2022/06/16 01:23:06;;;;;;;7.13;2.40;;;;;;;;;;4978002;28;20230;-78
2022/06/16 01:25:50;;;;;;;4.15;2.20;;;;;;;;;;4976260;28;20331;-78
2022/06/16 01:28:30;;;;;;;2.77;2.20;;;;;;;;;;4942294;28;20229;-77
2022/06/16 01:31:14;;;;;;;2.93;2.20;;;;;;;;;;4958584;28;20571;-77
2022/06/16 01:33:46;;;;;;;6.22;2.80;;;;;;;;;;4983031;28;20238;-78
2022/06/16 01:36:17;;;;;;;2.87;2.47;;;;;;;;;;4984520;28;20707;-78
2022/06/16 01:38:56;;;;;;;4.40;2.30;;;;;;;;;;4968463;28;20236;-78
2022/06/16 01:41:32;;;;;;;4.40;2.67;;;;;;;;;;4983359;28;20292;-78
2022/06/16 01:44:17;;;;;;;2.97;2.28;;;;;;;;;;4954213;28;20226;-79
2022/06/16 01:46:47;;;;;;;3.30;2.50;;;;;;;;;;4968478;28;20236;-79
2022/06/16 01:49:27;;;;;;;3.03;2.20;;;;;;;;;;4968511;28;20237;-79
2022/06/16 01:51:56;;;;;;;3.70;2.45;;;;;;;;;;4954918;28;20236;-82
2022/06/16 01:54:31;;;;;;;2.80;2.20;;;;;;;;;;4944890;28;20235;-80
2022/06/16 01:57:08;;;;;;;5.22;2.65;;;;;;;;;;4951161;28;20225;-81
2022/06/16 01:59:43;;;;;;;3.20;2.28;;;;;;;;;;4969746;28;20723;-81
2022/06/16 02:02:13;;;;;;;5.32;2.58;;;;;;;;;;4940490;28;20222;-79
2022/06/16 02:05:14;;;;;;;2.70;2.15;;;;;;;;;;4949233;28;20565;-82
2022/06/16 02:07:52;;;;;;;3.40;2.35;;;;;;;;;;4922327;29;20225;-79
2022/06/16 02:10:24;;;;;;;3.53;2.30;;;;;;;;;;4959841;28;20250;-79
2022/06/16 02:12:56;;;;;;;3.37;2.47;;;;;;;;;;4970626;28;20277;-80
2022/06/16 02:15:33;;;;;;;3.50;2.40;;;;;;;;;;4959027;29;20234;-79
2022/06/16 02:18:05;;;;;;;3.43;2.17;;;;;;;;;;4979989;28;20238;-79
2022/06/16 02:21:15;;;;;;;4.53;2.30;;;;;;;;;;4972248;28;20248;-80
2022/06/16 02:23:41;;;;;;;4.07;2.20;;;;;;;;;;4981144;28;20236;-79
2022/06/16 02:26:09;;;;;;;4.50;2.35;;;;;;;;;;5009020;28;20234;-80
2022/06/16 02:28:43;;;;;;;3.87;2.63;;;;;;;;;;4950281;28;20245;-79
2022/06/16 02:31:20;;;;;;;3.00;2.43;;;;;;;;;;4987843;28;20252;-80
2022/06/16 02:34:23;;;;;;;4.97;2.60;;;;;;;;;;5002307;28;20229;-79
2022/06/16 02:36:56;;;;;;;3.10;2.60;;;;;;;;;;4985295;28;20229;-81
2022/06/16 02:39:21;;;;;;;4.43;2.70;;;;;;;;;;4981750;28;20234;-80
2022/06/16 02:42:02;;;;;;;4.60;2.60;;;;;;;;;;4984526;28;20230;-81
2022/06/16 02:44:39;;;;;;;3.43;2.30;;;;;;;;;;4986648;28;20238;-80
2022/06/16 02:47:21;;;;;;;4.10;2.60;;;;;;;;;;4986899;28;20218;-80
2022/06/16 02:49:58;;;;;;;3.30;2.50;;;;;;;;;;4959121;28;20234;-83
2022/06/16 02:52:36;;;;;;;5.07;2.50;;;;;;;;;;4996792;28;20222;-82
2022/06/16 02:55:06;;;;;;;3.17;2.50;;;;;;;;;;4957382;28;20253;-80
2022/06/16 02:57:47;;;;;;;4.40;2.67;;;;;;;;;;4981543;28;20254;-80
2022/06/16 03:00:23;;;;;;;3.10;2.20;;;;;;;;;;4969613;28;20321;-80
2022/06/16 03:02:50;;;;;;;5.03;3.20;;;;;;;;;;4968648;28;20373;-81
2022/06/16 03:05:22;;;;;;;2.67;2.47;;;;;;;;;;4992001;28;20230;-79
2022/06/16 03:07:48;;;;;;;3.07;2.40;;;;;;;;;;4994883;28;20236;-79
2022/06/16 03:13:08;;;;;;;3.33;2.63;;;;;;;;;;5007401;28;20222;-79
2022/06/16 03:15:36;;;;;;;4.77;2.87;;;;;;;;;;4984118;28;20280;-79
2022/06/16 03:18:03;;;;;;;3.67;2.50;;;;;;;;;;4988116;28;20211;-79
2022/06/16 03:20:29;;;;;;;3.87;2.47;;;;;;;;;;4959300;28;20233;-79
2022/06/16 03:22:55;;;;;;;4.93;2.60;;;;;;;;;;4995051;28;20222;-80
2022/06/16 03:25:22;;;;;;;4.07;2.50;;;;;;;;;;4966476;28;20256;-82
2022/06/16 03:27:58;;;;;;;5.15;2.40;;;;;;;;;;4965068;28;20290;-80
2022/06/16 03:30:31;;;;;;;4.03;2.30;;;;;;;;;;4965774;28;20252;-82
2022/06/16 03:32:58;;;;;;;4.73;2.30;;;;;;;;;;4971266;28;20822;-79
2022/06/16 03:35:26;;;;;;;3.27;2.53;;;;;;;;;;4980274;28;20218;-77
2022/06/16 03:38:40;;;;;;;3.80;2.63;;;;;;;;;;4976813;28;20261;-77
2022/06/16 03:40:47;;;;;;;5.93;2.57;;;;;;;;;;4991352;28;20294;-80
2022/06/16 03:43:15;;;;;;;5.18;2.53;;;;;;;;;;4970036;28;20619;-82
2022/06/16 03:45:42;;;;;;;4.55;2.30;;;;;;;;;;4984993;28;20229;-81
2022/06/16 03:48:10;;;;;;;3.85;2.50;;;;;;;;;;4987381;28;20225;-82
2022/06/16 03:50:38;;;;;;;5.03;2.50;;;;;;;;;;4992001;28;20218;-79
2022/06/16 03:53:05;;;;;;;4.32;2.53;;;;;;;;;;4970530;28;20762;-79
2022/06/16 03:55:37;;;;;;;4.45;2.60;;;;;;;;;;4969324;28;20302;-82
2022/06/16 03:58:02;;;;;;;5.68;2.40;;;;;;;;;;4954037;28;20234;-82
2022/06/16 04:00:30;;;;;;;4.67;2.53;;;;;;;;;;4967007;28;20247;-82
2022/06/16 04:05:56;;;;;;;3.30;2.37;;;;;;;;;;4988292;28;20230;-81
2022/06/16 04:08:22;;;;;;;3.77;2.50;;;;;;;;;;4958495;28;20230;-81
2022/06/16 04:10:53;;;;;;;4.30;2.73;;;;;;;;;;4974822;28;20222;-79
2022/06/16 04:13:18;;;;;;;5.10;2.60;;;;;;;;;;4972692;28;20237;-80
2022/06/16 04:15:45;;;;;;;4.27;2.60;;;;;;;;;;4984146;28;20214;-79
2022/06/16 04:18:12;;;;;;;3.53;2.87;;;;;;;;;;4991632;28;20234;-80
2022/06/16 04:20:41;;;;;;;3.53;2.90;;;;;;;;;;4965308;28;20707;-83
2022/06/16 04:23:25;;;;;;;5.70;2.83;;;;;;;;;;4956309;28;20317;-81
2022/06/16 04:25:53;;;;;;;4.10;2.90;;;;;;;;;;4967905;28;20230;-81
2022/06/16 04:28:22;;;;;;;3.63;2.60;;;;;;;;;;4975137;28;20229;-82
2022/06/16 04:30:53;;;;;;;4.73;3.10;;;;;;;;;;4981238;28;20226;-82
2022/06/16 04:33:26;;;;;;;4.40;2.80;;;;;;;;;;4984825;28;20221;-82
2022/06/16 04:35:55;;;;;;;4.30;3.30;;;;;;;;;;4990683;28;20245;-81
2022/06/16 04:38:23;;;;;;;5.03;3.13;;;;;;;;;;4989080;28;20225;-80
2022/06/16 04:40:50;;;;;;;5.88;2.97;;;;;;;;;;4990517;28;20214;-84
2022/06/16 04:43:17;;;;;;;6.03;2.90;;;;;;;;;;4992697;28;20226;-83
2022/06/16 04:45:50;;;;;;;5.40;2.90;;;;;;;;;;4957166;28;20227;-81
2022/06/16 04:48:19;;;;;;;4.30;3.10;;;;;;;;;;4985827;28;20257;-83
2022/06/16 04:50:45;;;;;;;2.90;2.60;;;;;;;;;;4992039;28;20222;-83
2022/06/16 04:53:14;;;;;;;5.22;3.00;;;;;;;;;;4975317;28;20234;-83
2022/06/16 04:55:58;;;;;;;3.92;2.90;;;;;;;;;;4993614;28;20234;-82
2022/06/16 04:58:41;;;;;;;5.65;2.85;;;;;;;;;;4987088;28;20222;-80
2022/06/16 05:01:33;;;;;;;4.22;2.78;;;;;;;;;;4971577;28;20230;-82
2022/06/16 05:04:11;;;;;;;7.05;2.78;;;;;;;;;;4954445;28;20245;-83
2022/06/16 05:06:47;;;;;;;3.28;2.80;;;;;;;;;;4954385;28;20230;-82
2022/06/16 05:09:17;;;;;;;5.28;2.72;;;;;;;;;;4966042;28;20222;-82
2022/06/16 05:12:02;;;;;;;5.22;2.90;;;;;;;;;;4973947;28;20252;-82
2022/06/16 05:15:06;;;;;;;3.97;2.78;;;;;;;;;;4960745;28;20234;-80
2022/06/16 05:17:50;;;;;;;4.78;2.33;;;;;;;;;;4958376;28;20248;-81
2022/06/16 05:20:42;;;;;;;4.10;2.70;;;;;;;;;;4951491;28;20309;-84
2022/06/16 05:26:09;;;;;;;4.60;2.63;;;;;;;;;;5005979;28;20240;-72
2022/06/16 05:28:47;;;;;;;3.75;2.65;;;;;;;;;;4963437;28;20220;-72
2022/06/16 05:31:48;;;;;;;5.67;3.33;;;;;;;;;;4935077;29;20758;-72
2022/06/16 05:34:37;;;;;;;5.28;2.75;;;;;;;;;;4955187;28;20224;-72
2022/06/16 05:37:18;;;;;;;4.35;2.47;;;;;;;;;;5002877;28;20236;-72
2022/06/16 05:40:03;;;;;;;5.47;2.50;;;;;;;;;;5017763;28;20780;-73
2022/06/16 05:42:41;;;;;;;2.90;2.65;;;;;;;;;;5005322;28;20224;-73
2022/06/16 05:45:32;;;;;;;4.28;2.50;;;;;;;;;;5006495;28;20982;-72
2022/06/16 05:48:14;;;;;;;4.55;2.58;;;;;;;;;;4992127;28;20239;-72
2022/06/16 05:50:47;;;;;;;2.78;2.30;;;;;;;;;;5006230;28;20217;-72
2022/06/16 05:53:13;;;;;;;4.35;2.75;;;;;;;;;;4989051;28;20829;-74
2022/06/16 05:55:48;;;;;;;4.82;2.42;;;;;;;;;;4991639;28;20267;-72
2022/06/16 05:58:14;;;;;;;4.55;2.60;;;;;;;;;;4990809;28;20228;-72
2022/06/16 06:00:48;;;;;;;2.97;2.60;;;;;;;;;;5009625;28;20221;-72
2022/06/16 06:03:21;;;;;;;8.27;2.75;;;;;;;;;;4990988;28;20590;-72
2022/06/16 06:05:46;;;;;;;39.80;7.28;;;;;;;;;;4988435;28;20855;-73
2022/06/16 06:16:37;;;;;;;8.68;2.65;;;;;;;;;;4975942;28;20958;-74
2022/06/16 06:19:28;;;;;;;158.70;16.67;;;;;;;;;;5004792;28;20275;-73
2022/06/16 06:22:10;;;;;;;9.23;3.42;;;;;;;;;;4989522;28;20320;-73
2022/06/16 06:24:41;;;;;;;3.47;2.40;;;;;;;;;;4989575;28;20770;-76
2022/06/16 06:27:22;;;;;;;4.05;2.17;;;;;;;;;;4989661;28;20279;-72
2022/06/16 06:29:48;;;;;;;2.83;2.20;;;;;;;;;;5006535;28;20233;-73
2022/06/16 06:32:18;;;;;;;4.78;2.40;;;;;;;;;;4991592;28;20235;-72
2022/06/16 06:34:44;;;;;;;4.90;2.20;;;;;;;;;;4995088;28;20443;-73
2022/06/16 06:37:11;;;;;;;5.55;2.30;;;;;;;;;;5004298;28;20247;-71
2022/06/16 06:39:36;;;;;;;3.03;2.10;;;;;;;;;;5010495;28;20283;-74
2022/06/16 06:42:07;;;;;;;4.95;2.33;;;;;;;;;;5009040;28;20682;-73
2022/06/16 06:44:34;;;;;;;3.97;2.30;;;;;;;;;;4995119;28;20220;-73
2022/06/16 06:47:05;;;;;;;3.42;2.25;;;;;;;;;;4979700;28;20253;-73
2022/06/16 06:49:33;;;;;;;4.55;2.67;;;;;;;;;;5009943;28;20614;-71
2022/06/16 06:52:03;;;;;;;2.20;1.90;;;;;;;;;;5008053;28;20592;-74
2022/06/16 06:54:36;;;;;;;6.20;2.60;;;;;;;;;;5010377;28;20240;-73
2022/06/16 06:57:02;;;;;;;3.30;2.22;;;;;;;;;;5013657;28;20646;-74
2022/06/16 06:59:27;;;;;;;3.80;1.90;;;;;;;;;;5010125;28;20245;-75
2022/06/16 07:01:53;;;;;;;3.67;2.10;;;;;;;;;;4992724;28;20229;-74
2022/06/16 07:04:21;;;;;;;3.30;2.17;;;;;;;;;;4990355;28;20233;-73
2022/06/16 07:06:47;;;;;;;3.75;2.08;;;;;;;;;;4988080;28;20322;-74
2022/06/16 07:09:13;;;;;;;2.30;2.00;;;;;;;;;;4991657;28;20650;-73
2022/06/16 07:11:43;;;;;;;4.53;2.05;;;;;;;;;;4978500;28;20623;-74
2022/06/16 07:14:12;;;;;;;3.95;2.42;;;;;;;;;;4975518;28;20212;-74
2022/06/16 07:16:37;;;;;;;3.58;2.17;;;;;;;;;;4978041;28;20228;-75
2022/06/16 07:19:03;;;;;;;4.68;2.10;;;;;;;;;;4991067;28;20271;-74
2022/06/16 07:21:29;;;;;;;3.67;1.90;;;;;;;;;;5003230;28;20762;-75
2022/06/16 07:23:55;;;;;;;4.18;1.90;;;;;;;;;;4991641;28;20676;-74
2022/06/16 07:26:26;;;;;;;4.60;2.03;;;;;;;;;;4972466;28;20225;-74
2022/06/16 07:28:52;;;;;;;3.15;2.10;;;;;;;;;;5009655;28;20224;-74
2022/06/16 07:31:18;;;;;;;3.08;2.03;;;;;;;;;;5005519;28;20303;-74
2022/06/16 07:33:43;;;;;;;4.45;2.10;;;;;;;;;;4996916;28;20312;-74
2022/06/16 07:36:14;;;;;;;2.83;1.90;;;;;;;;;;4975207;28;20224;-73
2022/06/16 07:38:41;;;;;;;4.15;2.05;;;;;;;;;;4961882;28;20265;-73
2022/06/16 07:43:54;;;;;;;3.95;2.00;;;;;;;;;;4980792;28;20221;-73
2022/06/16 07:46:23;;;;;;;3.53;1.95;;;;;;;;;;5000208;28;20222;-73
2022/06/16 07:48:52;;;;;;;4.30;1.90;;;;;;;;;;4954236;28;20329;-72
2022/06/16 07:51:23;;;;;;;4.25;2.00;;;;;;;;;;4969769;28;20248;-74
2022/06/16 07:53:48;;;;;;;3.20;1.70;;;;;;;;;;4986748;28;20245;-72
2022/06/16 07:56:20;;;;;;;4.38;1.65;;;;;;;;;;4964994;28;20217;-71
2022/06/16 07:58:48;;;;;;;5.45;1.70;;;;;;;;;;4969851;28;20772;-74
2022/06/16 08:01:16;;;;;;;4.53;2.00;;;;;;;;;;4980030;28;20252;-71
2022/06/16 08:03:42;;;;;;;2.45;1.80;;;;;;;;;;4993533;28;20221;-74
2022/06/16 08:06:09;;;;;;;3.65;1.95;;;;;;;;;;4968397;28;20702;-72
2022/06/16 08:08:36;;;;;;;9.65;2.72;;;;;;;;;;4976870;28;20225;-73
2022/06/16 08:11:04;;;;;;;4.18;2.20;;;;;;;;;;4975303;28;20235;-73
2022/06/16 08:13:32;;;;;;;3.30;1.83;;;;;;;;;;4967455;28;20598;-72
2022/06/16 08:15:58;;;;;;;3.28;2.00;;;;;;;;;;4989146;28;20324;-74
2022/06/16 08:18:24;;;;;;;3.72;1.85;;;;;;;;;;5004865;28;20247;-72
2022/06/16 08:20:52;;;;;;;3.42;1.83;;;;;;;;;;4957741;28;20304;-74
2022/06/16 08:23:18;;;;;;;2.92;1.77;;;;;;;;;;4972280;28;20221;-74
2022/06/16 08:25:46;;;;;;;3.90;1.70;;;;;;;;;;4991310;28;20220;-74
2022/06/16 08:28:14;;;;;;;4.35;1.80;;;;;;;;;;4990188;28;20213;-73
2022/06/16 08:30:44;;;;;;;3.80;1.67;;;;;;;;;;4990777;28;20976;-73
2022/06/16 08:33:13;;;;;;;2.03;1.60;;;;;;;;;;5005544;28;20283;-73
2022/06/16 08:35:44;;;;;;;4.60;2.10;;;;;;;;;;4958388;28;20217;-73
2022/06/16 08:38:10;;;;;;;2.85;1.60;;;;;;;;;;5004938;28;20262;-73
2022/06/16 08:40:45;;;;;;;3.95;1.88;;;;;;;;;;4991543;28;20225;-74
2022/06/16 08:43:20;;;;;;;1.98;1.48;;;;;;;;;;4974377;28;20315;-73
2022/06/16 08:46:01;;;;;;;2.22;1.73;;;;;;;;;;5006823;28;20220;-72
2022/06/16 08:48:29;;;;;;;4.35;1.98;;;;;;;;;;5005877;28;20220;-73
2022/06/16 08:51:29;;;;;;;3.78;1.73;;;;;;;;;;5007922;28;20225;-74
2022/06/16 08:54:04;;;;;;;4.30;1.70;;;;;;;;;;4972536;28;20221;-74
2022/06/16 08:56:44;;;;;;;3.08;1.70;;;;;;;;;;5007879;28;20258;-73
2022/06/16 08:59:28;;;;;;;3.90;1.70;;;;;;;;;;5004910;28;20240;-73
2022/06/16 09:02:12;;;;;;;7.40;1.60;;;;;;;;;;4972854;28;20225;-75
2022/06/16 09:04:40;;;;;;;1.90;1.40;;;;;;;;;;4993372;28;20601;-73
2022/06/16 09:07:28;;;;;;;5.35;1.75;;;;;;;;;;4973163;28;20287;-73
2022/06/16 09:10:19;;;;;;;3.30;1.30;;;;;;;;;;4993643;28;20213;-71
2022/06/16 09:13:04;;;;;;;2.75;1.38;;;;;;;;;;4973271;28;20608;-72
2022/06/16 09:15:41;;;;;;;2.75;1.30;;;;;;;;;;4990532;28;20239;-74
2022/06/16 09:18:29;;;;;;;3.33;1.40;;;;;;;;;;5004024;28;20229;-73
2022/06/16 09:21:04;;;;;;;2.67;1.23;;;;;;;;;;4973164;28;20770;-74
2022/06/16 09:23:52;;;;;;;2.13;1.23;;;;;;;;;;5003634;28;20220;-73
2022/06/16 09:26:24;;;;;;;2.75;1.00;;;;;;;;;;5004613;28;20229;-73
2022/06/16 09:29:12;;;;;;;3.70;1.30;;;;;;;;;;4973564;28;20216;-73
2022/06/16 09:32:03;;;;;;;1.77;1.00;;;;;;;;;;4989281;28;20663;-75
2022/06/16 09:34:52;;;;;;;2.65;1.20;;;;;;;;;;5002759;28;20303;-74
2022/06/16 09:37:31;;;;;;;1.85;1.15;;;;;;;;;;4992030;28;20244;-73
2022/06/16 09:40:06;;;;;;;1.45;1.10;;;;;;;;;;4971769;28;20239;-72
2022/06/16 09:42:38;;;;;;;1.98;0.93;;;;;;;;;;4986508;28;20225;-69
2022/06/16 09:45:20;;;;;;;3.92;1.00;;;;;;;;;;4958399;28;20243;-72
2022/06/16 09:48:04;;;;;;;2.95;1.10;;;;;;;;;;4967390;28;20711;-75
2022/06/16 09:50:49;;;;;;;2.00;1.00;;;;;;;;;;5003594;28;20231;-73
2022/06/16 09:53:35;;;;;;;2.03;1.20;;;;;;;;;;5001027;28;20572;-72
2022/06/16 09:56:26;;;;;;;2.22;1.20;;;;;;;;;;4989741;28;20224;-74
2022/06/16 09:59:07;;;;;;;3.15;1.10;;;;;;;;;;4969391;28;20999;-72
2022/06/16 10:01:38;;;;;;;2.83;1.17;;;;;;;;;;5003115;28;20245;-75
2022/06/16 10:04:07;;;;;;;1.65;1.02;;;;;;;;;;4973284;28;20221;-74
2022/06/16 10:06:56;;;;;;;1.20;1.10;;;;;;;;;;5003135;28;20232;-73
2022/06/16 10:09:42;;;;;;;1.77;0.90;;;;;;;;;;5004643;28;20293;-73
2022/06/16 10:12:10;;;;;;;2.10;1.10;;;;;;;;;;4986145;28;20232;-73
2022/06/16 10:15:13;;;;;;;2.60;0.98;;;;;;;;;;4989702;28;20282;-74
2022/06/16 10:17:44;;;;;;;2.38;0.80;;;;;;;;;;4981384;28;20282;-74
2022/06/16 10:20:11;;;;;;;2.10;0.90;;;;;;;;;;4974289;28;20300;-74
2022/06/16 10:22:42;;;;;;;2.35;0.90;;;;;;;;;;4989273;28;20600;-74
2022/06/16 10:25:16;;;;;;;3.17;0.80;;;;;;;;;;4988752;28;20231;-73
2022/06/16 10:27:46;;;;;;;3.45;0.93;;;;;;;;;;4989549;28;20235;-73
2022/06/16 10:30:41;;;;;;;2.78;1.10;;;;;;;;;;4975171;28;20665;-73
2022/06/16 10:33:12;;;;;;;3.97;1.00;;;;;;;;;;4989682;28;20311;-74
2022/06/16 10:35:38;;;;;;;3.10;0.90;;;;;;;;;;5004961;28;20254;-72
2022/06/16 10:38:03;;;;;;;1.20;0.80;;;;;;;;;;4976680;28;20231;-73
2022/06/16 10:40:36;;;;;;;2.80;0.98;;;;;;;;;;5006170;28;20220;-70
2022/06/16 10:43:15;;;;;;;2.42;0.80;;;;;;;;;;5002735;28;20224;-73
2022/06/16 10:45:40;;;;;;;1.40;0.60;;;;;;;;;;5004708;28;20221;-74
2022/06/16 10:48:20;;;;;;;2.55;0.98;;;;;;;;;;4971151;28;20295;-73
2022/06/16 10:50:49;;;;;;;1.02;0.63;;;;;;;;;;4975870;28;20221;-74
2022/06/16 10:53:38;;;;;;;2.58;0.65;;;;;;;;;;4969251;28;20252;-74
2022/06/16 10:56:16;;;;;;;2.90;0.90;;;;;;;;;;4986642;28;20355;-74
2022/06/16 10:58:47;;;;;;;3.20;0.90;;;;;;;;;;5019681;28;20706;-74
2022/06/16 11:01:18;;;;;;;1.02;0.68;;;;;;;;;;5002291;28;20229;-73
2022/06/16 11:03:49;;;;;;;40.78;4.55;;;;;;;;;;5004989;28;20225;-78
2022/06/16 11:06:21;;;;;;;2.63;0.68;;;;;;;;;;4986712;28;20227;-73
2022/06/16 11:08:50;;;;;;;3.10;0.60;;;;;;;;;;4987754;28;20232;-76
2022/06/16 11:11:20;;;;;;;1.33;0.50;;;;;;;;;;4985331;28;20217;-74
2022/06/16 11:13:52;;;;;;;2.25;0.60;;;;;;;;;;4987810;28;20227;-77
2022/06/16 11:16:31;;;;;;;1.75;0.63;;;;;;;;;;4987565;28;20670;-74
2022/06/16 11:18:58;;;;;;;1.60;0.52;;;;;;;;;;4978283;28;20237;-74
2022/06/16 11:21:29;;;;;;;1.25;0.55;;;;;;;;;;4960945;28;20300;-73
2022/06/16 11:23:57;;;;;;;1.17;0.45;;;;;;;;;;4959585;28;20228;-74
2022/06/16 11:26:34;;;;;;;1.15;0.40;;;;;;;;;;4991921;28;20248;-71
2022/06/16 11:29:10;;;;;;;1.05;0.40;;;;;;;;;;5007196;28;20230;-72
2022/06/16 11:31:47;;;;;;;3.60;0.80;;;;;;;;;;5007250;28;20228;-72
2022/06/16 11:34:15;;;;;;;1.33;0.40;;;;;;;;;;4992277;28;20260;-72
2022/06/16 11:36:58;;;;;;;1.58;0.60;;;;;;;;;;5006399;28;20232;-71
2022/06/16 11:39:48;;;;;;;0.57;0.50;;;;;;;;;;4988318;28;20714;-72
2022/06/16 11:42:44;;;;;;;0.80;0.45;;;;;;;;;;5005990;28;20220;-71
2022/06/16 11:45:09;;;;;;;0.47;0.43;;;;;;;;;;5007698;28;20264;-72
2022/06/16 11:47:59;;;;;;;0.90;0.40;;;;;;;;;;4988700;28;20618;-72
2022/06/16 11:50:44;;;;;;;1.88;0.65;;;;;;;;;;4988410;28;20220;-72
2022/06/16 11:53:28;;;;;;;0.63;0.60;;;;;;;;;;4990398;28;20243;-72
2022/06/16 11:55:58;;;;;;;1.67;0.55;;;;;;;;;;5002796;28;20276;-72
2022/06/16 11:58:51;;;;;;;2.72;0.90;;;;;;;;;;5009732;28;20241;-72
2022/06/16 12:01:28;;;;;;;1.42;0.70;;;;;;;;;;4990055;28;20227;-72
2022/06/16 12:03:57;;;;;;;1.40;0.50;;;;;;;;;;5005535;28;20270;-70
2022/06/16 12:06:44;;;;;;;1.17;0.60;;;;;;;;;;5005017;28;20232;-72
2022/06/16 12:09:37;;;;;;;0.60;0.57;;;;;;;;;;5006525;28;20275;-72
2022/06/16 12:12:31;;;;;;;1.45;0.70;;;;;;;;;;5008844;28;20224;-71
2022/06/16 12:15:08;;;;;;;2.10;0.82;;;;;;;;;;5009421;28;20256;-73
2022/06/16 12:17:42;;;;;;;2.65;0.60;;;;;;;;;;5008669;28;20247;-74
2022/06/16 12:20:14;;;;;;;2.40;0.80;;;;;;;;;;4973991;28;20237;-73
2022/06/16 12:22:40;;;;;;;1.42;0.82;;;;;;;;;;5005983;28;20734;-78
2022/06/16 12:25:36;;;;;;;2.88;0.90;;;;;;;;;;5009215;28;20236;-72
2022/06/16 12:28:42;;;;;;;2.03;0.82;;;;;;;;;;4997653;28;20232;-73
2022/06/16 12:31:13;;;;;;;2.97;1.00;;;;;;;;;;5003986;28;20216;-76
2022/06/16 12:33:53;;;;;;;1.25;0.80;;;;;;;;;;4986388;28;20268;-77
2022/06/16 12:36:23;;;;;;;3.88;0.90;;;;;;;;;;4976450;28;20623;-74
2022/06/16 12:38:54;;;;;;;1.70;0.80;;;;;;;;;;4975715;28;20236;-78
2022/06/16 12:41:28;;;;;;;2.05;0.95;;;;;;;;;;4987949;28;20312;-74
2022/06/16 12:44:00;;;;;;;0.82;0.80;;;;;;;;;;4992301;28;20721;-73
2022/06/16 12:46:36;;;;;;;0.98;0.80;;;;;;;;;;5006460;28;20232;-73
2022/06/16 12:49:05;;;;;;;1.58;0.82;;;;;;;;;;5003394;28;20216;-75
2022/06/16 12:51:44;;;;;;;1.60;0.90;;;;;;;;;;5011775;28;20229;-72
2022/06/16 12:54:23;;;;;;;2.22;0.73;;;;;;;;;;4993774;28;20221;-70
2022/06/16 12:56:58;;;;;;;2.53;0.90;;;;;;;;;;4989465;28;20765;-71
2022/06/16 12:59:29;;;;;;;2.17;1.00;;;;;;;;;;4991422;28;20228;-71
2022/06/16 13:01:59;;;;;;;1.95;0.98;;;;;;;;;;5007717;28;20642;-72
2022/06/16 13:04:28;;;;;;;1.77;1.00;;;;;;;;;;4988418;28;20300;-71
2022/06/16 13:06:54;;;;;;;2.42;1.10;;;;;;;;;;4987897;28;20214;-72
2022/06/16 13:09:20;;;;;;;1.20;0.85;;;;;;;;;;4972304;28;20224;-73
2022/06/16 13:11:50;;;;;;;2.70;1.00;;;;;;;;;;4974161;28;20251;-74
2022/06/16 13:14:26;;;;;;;2.90;1.10;;;;;;;;;;4990886;28;20228;-73
2022/06/16 13:16:54;;;;;;;1.55;0.90;;;;;;;;;;4985506;28;20244;-72
2022/06/16 13:19:25;;;;;;;1.80;1.00;;;;;;;;;;4971755;28;20260;-70
2022/06/16 13:21:57;;;;;;;1.20;0.90;;;;;;;;;;4969539;28;20228;-70
2022/06/16 13:24:53;;;;;;;1.92;1.00;;;;;;;;;;4972963;28;20247;-70
2022/06/16 13:27:19;;;;;;;3.10;1.20;;;;;;;;;;4968776;28;20237;-72
2022/06/16 13:29:50;;;;;;;2.25;1.00;;;;;;;;;;4987977;28;20334;-71
2022/06/16 13:32:33;;;;;;;1.88;0.90;;;;;;;;;;5009455;28;20686;-72
2022/06/16 13:35:21;;;;;;;1.55;0.95;;;;;;;;;;4978615;28;20225;-71
2022/06/16 13:38:02;;;;;;;2.83;1.02;;;;;;;;;;4975934;28;20226;-71
2022/06/16 13:40:28;;;;;;;3.70;1.02;;;;;;;;;;4987151;28;20228;-71
2022/06/16 13:42:56;;;;;;;1.58;0.82;;;;;;;;;;4987896;28;20236;-72
2022/06/16 13:45:24;;;;;;;2.28;1.20;;;;;;;;;;5010156;28;20259;-72
2022/06/16 13:48:17;;;;;;;1.90;1.00;;;;;;;;;;5009345;28;20228;-71
2022/06/16 13:50:55;;;;;;;1.60;0.90;;;;;;;;;;4998905;28;20235;-70
2022/06/16 13:53:45;;;;;;;2.08;0.82;;;;;;;;;;4987515;28;20224;-70
2022/06/16 13:56:22;;;;;;;2.03;1.10;;;;;;;;;;4990903;28;20220;-71
2022/06/16 13:59:01;;;;;;;2.83;1.00;;;;;;;;;;4984678;28;20228;-71
2022/06/16 14:01:30;;;;;;;2.47;0.80;;;;;;;;;;4982623;28;20229;-72
2022/06/16 14:04:02;;;;;;;1.98;0.80;;;;;;;;;;4958631;28;20575;-71
2022/06/16 14:06:27;;;;;;;3.15;1.02;;;;;;;;;;5003504;28;20225;-72
2022/06/16 14:09:01;;;;;;;3.08;0.95;;;;;;;;;;4972476;28;20233;-71
2022/06/16 14:11:31;;;;;;;3.55;1.00;;;;;;;;;;4986400;28;20255;-72
2022/06/16 14:14:15;;;;;;;1.45;0.80;;;;;;;;;;4961796;28;20409;-72
2022/06/16 14:16:49;;;;;;;1.95;1.00;;;;;;;;;;4986484;28;20232;-70
2022/06/16 14:19:21;;;;;;;2.50;0.93;;;;;;;;;;4984427;28;20284;-71
2022/06/16 14:22:05;;;;;;;1.90;1.02;;;;;;;;;;5011371;28;20315;-71
2022/06/16 14:24:50;;;;;;;2.33;1.00;;;;;;;;;;4995490;28;20221;-72
2022/06/16 14:27:22;;;;;;;3.92;1.00;;;;;;;;;;5010852;28;20213;-71
2022/06/16 14:29:48;;;;;;;1.75;1.05;;;;;;;;;;4992576;28;20221;-72
2022/06/16 14:32:17;;;;;;;2.33;1.17;;;;;;;;;;5006979;28;20978;-71
2022/06/16 14:35:03;;;;;;;1.58;1.10;;;;;;;;;;4997373;28;20222;-70
2022/06/16 14:37:51;;;;;;;1.45;1.00;;;;;;;;;;5015157;28;20223;-73
2022/06/16 14:40:40;;;;;;;1.63;1.15;;;;;;;;;;5012726;28;20229;-72
2022/06/16 14:43:31;;;;;;;3.22;0.82;;;;;;;;;;4992861;28;20228;-73
2022/06/16 14:46:08;;;;;;;1.27;0.85;;;;;;;;;;5004931;28;20283;-72
2022/06/16 14:48:36;;;;;;;1.20;1.10;;;;;;;;;;4981207;28;20205;-71
2022/06/16 14:51:06;;;;;;;2.25;1.00;;;;;;;;;;4968739;28;20221;-70
2022/06/16 14:53:41;;;;;;;1.30;0.90;;;;;;;;;;4971542;28;20364;-71
2022/06/16 14:56:08;;;;;;;2.92;0.90;;;;;;;;;;4987726;28;20342;-71
2022/06/16 14:58:46;;;;;;;0.93;0.80;;;;;;;;;;4992401;28;20225;-71
2022/06/16 15:01:12;;;;;;;1.92;0.82;;;;;;;;;;5005186;28;20220;-71
2022/06/16 15:03:42;;;;;;;2.20;1.08;;;;;;;;;;4988671;28;20237;-72
2022/06/16 15:06:08;;;;;;;3.13;0.98;;;;;;;;;;4986743;28;20219;-71
2022/06/16 15:08:39;;;;;;;2.97;1.00;;;;;;;;;;4973398;28;20220;-72
2022/06/16 15:11:06;;;;;;;1.85;0.75;;;;;;;;;;4985025;28;20209;-71
2022/06/16 15:13:34;;;;;;;1.23;0.63;;;;;;;;;;4973834;28;20248;-71
2022/06/16 15:16:01;;;;;;;2.38;0.90;;;;;;;;;;4992613;28;20264;-71
2022/06/16 15:18:28;;;;;;;2.10;0.98;;;;;;;;;;4974674;28;20221;-73
2022/06/16 15:20:57;;;;;;;1.45;0.90;;;;;;;;;;4988029;28;20221;-70
2022/06/16 15:23:30;;;;;;;3.03;0.90;;;;;;;;;;4972757;28;20225;-71
2022/06/16 15:25:57;;;;;;;1.58;0.80;;;;;;;;;;4988935;28;20217;-72
2022/06/16 15:28:23;;;;;;;1.60;0.90;;;;;;;;;;4972558;28;20616;-72
2022/06/16 15:30:55;;;;;;;2.47;0.88;;;;;;;;;;5005514;28;20217;-71
2022/06/16 15:36:08;;;;;;;1.52;0.90;;;;;;;;;;4990722;28;20233;-71
2022/06/16 15:38:38;;;;;;;1.23;0.73;;;;;;;;;;4999122;28;20237;-70
2022/06/16 15:41:27;;;;;;;1.20;0.75;;;;;;;;;;4988617;28;20247;-72
2022/06/16 15:43:57;;;;;;;1.35;0.82;;;;;;;;;;4960285;28;20216;-70
2022/06/16 15:46:25;;;;;;;3.38;0.85;;;;;;;;;;4958282;28;20225;-70
2022/06/16 15:48:50;;;;;;;1.42;0.82;;;;;;;;;;4988009;28;20216;-71
2022/06/16 15:51:16;;;;;;;2.47;0.68;;;;;;;;;;4991501;28;20231;-71